createdAt,value
2022-08-11T00:00:54.644Z,78.72
2022-08-11T00:01:59.758Z,78.54
2022-08-11T00:03:07.973Z,78.39
2022-08-11T00:04:10.752Z,78.83
2022-08-11T00:05:18.626Z,78.95
2022-08-11T00:06:31.934Z,79.00
2022-08-11T00:07:35.541Z,78.98
2022-08-11T00:08:38.293Z,78.72
2022-08-11T00:09:40.501Z,78.60
2022-08-11T00:10:42.305Z,78.69
2022-08-11T00:11:53.020Z,77.60
2022-08-11T00:12:59.264Z,77.27
2022-08-11T00:14:01.420Z,76.83
2022-08-11T00:15:03.503Z,76.63
2022-08-11T00:16:14.564Z,76.42
2022-08-11T00:17:17.672Z,76.37
2022-08-11T00:18:20.176Z,76.75
2022-08-11T00:20:12.792Z,77.33
2022-08-11T00:20:48.255Z,78.16
2022-08-11T00:22:05.033Z,78.27
2022-08-11T00:23:14.655Z,77.83
2022-08-11T00:24:22.005Z,77.49
2022-08-11T00:25:24.347Z,77.18
2022-08-11T00:26:27.816Z,76.58
2022-08-11T00:27:34.866Z,76.55
2022-08-11T00:28:37.026Z,76.79
2022-08-11T00:29:38.800Z,76.50
2022-08-11T00:30:55.690Z,76.30
2022-08-11T00:32:01.966Z,76.47
2022-08-11T00:33:05.135Z,76.46
2022-08-11T00:34:12.363Z,76.30
2022-08-11T00:35:56.095Z,76.00
2022-08-11T00:36:48.931Z,75.84
2022-08-11T00:37:54.734Z,75.09
2022-08-11T00:39:04.658Z,75.11
2022-08-11T00:40:20.074Z,75.44
2022-08-11T00:41:57.078Z,75.57
2022-08-11T00:43:35.091Z,75.99
2022-08-11T00:44:40.286Z,75.61
2022-08-11T00:45:55.889Z,76.35
2022-08-11T00:47:18.821Z,75.41
2022-08-11T00:48:29.721Z,75.01
2022-08-11T00:49:52.650Z,75.04
2022-08-11T00:51:25.435Z,75.06
2022-08-11T00:52:57.522Z,76.24
2022-08-11T00:54:25.127Z,76.72
2022-08-11T00:55:34.044Z,77.20
2022-08-11T00:57:36.173Z,77.43
2022-08-11T00:58:40.028Z,77.25
2022-08-11T01:00:11.125Z,77.43
2022-08-11T01:01:20.909Z,77.51
2022-08-11T01:02:47.001Z,77.70
2022-08-11T01:04:07.088Z,77.12
2022-08-11T01:05:27.273Z,77.22
2022-08-11T01:06:54.518Z,77.36
2022-08-11T01:08:34.059Z,77.02
2022-08-11T01:09:53.773Z,77.16
2022-08-11T01:11:14.174Z,77.05
2022-08-11T01:12:45.721Z,76.50
2022-08-11T01:13:53.277Z,76.34
2022-08-11T01:14:54.872Z,76.13
2022-08-11T01:16:37.433Z,76.41
2022-08-11T01:17:41.982Z,76.06
2022-08-11T01:19:19.554Z,76.04
2022-08-11T01:20:47.185Z,76.49
2022-08-11T01:22:10.748Z,76.92
2022-08-11T01:23:34.091Z,76.70
2022-08-11T01:24:44.805Z,76.87
2022-08-11T01:26:23.565Z,76.51
2022-08-11T01:27:37.268Z,76.13
2022-08-11T01:28:57.546Z,75.96
2022-08-11T01:30:23.767Z,75.71
2022-08-11T01:31:54.503Z,75.27
2022-08-11T01:33:33.310Z,75.30
2022-08-11T01:34:49.856Z,75.69
2022-08-11T01:36:09.848Z,75.36
2022-08-11T01:37:30.369Z,75.09
2022-08-11T01:39:09.399Z,75.14
2022-08-11T01:40:40.523Z,75.39
2022-08-11T01:42:23.800Z,75.60
2022-08-11T01:43:52.431Z,76.62
2022-08-11T01:45:16.138Z,78.27
2022-08-11T01:46:43.726Z,79.49
2022-08-11T01:47:55.943Z,81.47
2022-08-11T01:50:06.515Z,82.91
2022-08-11T01:51:01.626Z,83.78
2022-08-11T01:52:18.716Z,83.37
2022-08-11T01:53:46.747Z,83.53
2022-08-11T01:55:10.010Z,83.85
2022-08-11T01:56:33.892Z,84.11
2022-08-11T01:57:47.508Z,84.66
2022-08-11T01:59:12.419Z,84.87
2022-08-11T02:00:20.986Z,85.44
2022-08-11T02:01:41.001Z,85.36
2022-08-11T02:02:54.177Z,85.40
2022-08-11T02:04:34.061Z,85.27
2022-08-11T02:06:33.962Z,85.79
2022-08-11T02:08:13.214Z,85.71
2022-08-11T02:09:34.315Z,85.88
2022-08-11T02:11:20.443Z,86.14
2022-08-11T02:12:53.015Z,86.49
2022-08-11T02:14:20.781Z,86.42
2022-08-11T02:15:36.431Z,85.02
2022-08-11T02:17:02.624Z,83.59
2022-08-11T02:18:10.587Z,82.63
2022-08-11T02:19:36.864Z,83.15
2022-08-11T02:21:03.035Z,83.45
2022-08-11T02:22:49.499Z,82.46
2022-08-11T02:24:08.093Z,82.03
2022-08-11T02:25:22.483Z,81.36
2022-08-11T02:26:48.769Z,81.67
2022-08-11T02:28:01.029Z,81.53
2022-08-11T02:29:28.924Z,81.51
2022-08-11T02:30:38.315Z,81.27
2022-08-11T02:32:25.676Z,80.61
2022-08-11T02:33:36.578Z,80.18
2022-08-11T02:34:44.544Z,80.20
2022-08-11T02:36:10.880Z,79.66
2022-08-11T02:37:24.822Z,79.75
2022-08-11T02:38:51.293Z,79.61
2022-08-11T02:39:58.706Z,79.61
2022-08-11T02:41:26.088Z,79.69
2022-08-11T02:42:39.861Z,79.94
2022-08-11T02:43:51.060Z,79.88
2022-08-11T02:45:26.470Z,79.71
2022-08-11T02:46:37.134Z,79.50
2022-08-11T02:48:22.417Z,78.96
2022-08-11T02:49:59.945Z,78.22
2022-08-11T02:51:22.152Z,78.34
2022-08-11T02:52:59.149Z,78.07
2022-08-11T02:54:41.946Z,78.29
2022-08-11T02:56:09.147Z,77.77
2022-08-11T02:57:24.178Z,77.42
2022-08-11T02:59:08.730Z,76.92
2022-08-11T03:00:14.363Z,76.94
2022-08-11T03:01:23.745Z,77.41
2022-08-11T03:03:13.372Z,77.75
2022-08-11T03:04:25.241Z,77.66
2022-08-11T03:05:45.454Z,77.71
2022-08-11T03:06:59.326Z,77.37
2022-08-11T03:08:24.127Z,77.49
2022-08-11T03:10:03.946Z,78.54
2022-08-11T03:11:30.093Z,78.97
2022-08-11T03:13:04.476Z,78.47
2022-08-11T03:14:37.921Z,78.28
2022-08-11T03:16:10.799Z,78.47
2022-08-11T03:17:46.302Z,78.74
2022-08-11T03:19:23.541Z,80.59
2022-08-11T03:20:46.634Z,82.07
2022-08-11T03:22:03.044Z,82.70
2022-08-11T03:23:29.736Z,82.61
2022-08-11T03:24:46.976Z,82.62
2022-08-11T03:26:15.722Z,83.18
2022-08-11T03:27:20.312Z,83.54
2022-08-11T03:29:02.230Z,83.39
2022-08-11T03:30:03.809Z,82.88
2022-08-11T03:31:24.922Z,83.85
2022-08-11T03:33:18.441Z,85.06
2022-08-11T03:34:25.389Z,86.14
2022-08-11T03:35:30.480Z,86.33
2022-08-11T03:37:15.432Z,86.75
2022-08-11T03:38:02.770Z,86.53
2022-08-11T03:39:04.325Z,87.49
2022-08-11T03:40:45.649Z,88.55
2022-08-11T03:42:14.765Z,90.62
2022-08-11T03:43:34.794Z,91.51
2022-08-11T03:44:42.541Z,92.25
2022-08-11T03:46:17.014Z,92.67
2022-08-11T03:47:24.384Z,92.63
2022-08-11T03:48:53.552Z,92.65
2022-08-11T03:50:25.089Z,93.19
2022-08-11T03:51:54.309Z,93.54
2022-08-11T03:53:14.217Z,94.14
2022-08-11T03:54:45.920Z,94.25
2022-08-11T03:56:24.728Z,94.60
2022-08-11T03:58:11.669Z,94.67
2022-08-11T03:59:38.225Z,93.73
2022-08-11T04:00:56.248Z,93.12
2022-08-11T04:02:25.666Z,92.53
2022-08-11T04:03:46.978Z,92.04
2022-08-11T04:04:51.638Z,92.09
2022-08-11T04:06:25.283Z,92.07
2022-08-11T04:07:47.409Z,91.00
2022-08-11T04:08:54.762Z,89.20
2022-08-11T04:10:58.218Z,88.51
2022-08-11T04:12:49.644Z,87.49
2022-08-11T04:14:44.042Z,86.40
2022-08-11T04:16:11.739Z,85.51
2022-08-11T04:17:38.594Z,85.01
2022-08-11T04:18:52.134Z,85.88
2022-08-11T04:20:31.167Z,85.45
2022-08-11T04:21:35.702Z,84.55
2022-08-11T04:23:06.488Z,84.43
2022-08-11T04:24:39.652Z,84.53
2022-08-11T04:26:22.244Z,84.21
2022-08-11T04:27:59.078Z,84.81
2022-08-11T04:29:24.965Z,84.14
2022-08-11T04:31:50.363Z,82.71
2022-08-11T04:32:59.989Z,82.17
2022-08-11T04:34:06.947Z,81.27
2022-08-11T04:35:16.602Z,80.70
2022-08-11T04:36:55.389Z,79.26
2022-08-11T04:38:23.939Z,79.25
2022-08-11T04:39:39.859Z,79.38
2022-08-11T04:41:08.865Z,78.35
2022-08-11T04:42:44.750Z,77.67
2022-08-11T04:44:12.193Z,77.07
2022-08-11T04:45:37.200Z,75.71
2022-08-11T04:47:01.877Z,75.24
2022-08-11T04:48:40.747Z,76.23
2022-08-11T04:50:17.152Z,75.72
2022-08-11T04:51:58.843Z,76.20
2022-08-11T04:53:32.010Z,76.16
2022-08-11T04:55:34.752Z,77.05
2022-08-11T04:57:02.175Z,79.22
2022-08-11T04:58:38.351Z,78.72
2022-08-11T05:00:22.856Z,78.13
2022-08-11T05:01:42.270Z,77.80
2022-08-11T05:03:08.813Z,76.77
2022-08-11T05:04:51.718Z,75.40
2022-08-11T05:06:14.692Z,74.57
2022-08-11T05:07:28.083Z,72.90
2022-08-11T05:09:03.825Z,72.22
2022-08-11T05:10:08.507Z,71.97
2022-08-11T05:11:31.810Z,72.40
2022-08-11T05:13:28.116Z,72.98
2022-08-11T05:14:54.501Z,73.60
2022-08-11T05:16:18.406Z,72.48
2022-08-11T05:18:23.153Z,72.53
2022-08-11T05:19:43.306Z,72.46
2022-08-11T05:21:15.607Z,71.65
2022-08-11T05:22:38.075Z,71.01
2022-08-11T05:24:04.442Z,70.46
2022-08-11T05:26:44.689Z,69.59
2022-08-11T05:27:13.791Z,68.50
2022-08-11T05:28:40.398Z,68.88
2022-08-11T05:30:00.398Z,68.00
2022-08-11T05:31:30.867Z,67.46
2022-08-11T05:33:01.411Z,65.91
2022-08-11T05:34:40.588Z,64.84
2022-08-11T05:36:01.800Z,64.46
2022-08-11T05:37:26.074Z,64.19
2022-08-11T05:38:52.093Z,63.32
2022-08-11T05:40:18.979Z,62.53
2022-08-11T05:41:45.341Z,62.25
2022-08-11T05:43:14.097Z,60.98
2022-08-11T05:44:45.795Z,60.32
2022-08-11T05:46:39.072Z,60.20
2022-08-11T05:48:18.029Z,59.58
2022-08-11T05:49:40.115Z,59.09
2022-08-11T05:51:13.006Z,58.91
2022-08-11T05:57:50.697Z,59.08
2022-08-11T06:05:47.285Z,57.17
2022-08-11T06:09:58.381Z,56.70
2022-08-11T06:12:46.018Z,56.86
2022-08-11T06:13:51.971Z,56.88
2022-08-11T06:15:06.113Z,57.14
2022-08-11T06:16:11.805Z,58.44
2022-08-11T06:17:27.120Z,58.34
2022-08-11T06:18:57.998Z,57.33
2022-08-11T06:21:23.541Z,54.04
2022-08-11T06:22:27.726Z,53.35
2022-08-11T06:23:36.146Z,53.23
2022-08-11T06:24:42.077Z,53.31
2022-08-11T06:25:44.365Z,52.99
2022-08-11T06:28:20.638Z,51.70
2022-08-11T06:29:37.497Z,51.54
2022-08-11T06:30:47.345Z,50.22
2022-08-11T06:32:00.930Z,50.50
2022-08-11T06:33:06.019Z,51.88
2022-08-11T06:34:33.147Z,52.10
2022-08-11T06:36:07.621Z,51.52
2022-08-11T06:37:36.243Z,50.79
2022-08-11T06:38:58.414Z,51.08
2022-08-11T06:40:08.757Z,50.90
2022-08-11T06:41:36.036Z,50.61
2022-08-11T06:42:53.925Z,50.23
2022-08-11T06:44:17.000Z,49.20
2022-08-11T06:45:40.694Z,49.10
2022-08-11T06:46:53.265Z,48.46
2022-08-11T06:47:58.121Z,48.33
2022-08-11T06:49:03.195Z,48.09
2022-08-11T06:50:25.357Z,48.08
2022-08-11T06:51:27.799Z,48.07
2022-08-11T06:52:36.762Z,47.87
2022-08-11T06:54:04.079Z,48.12
2022-08-11T06:55:57.187Z,50.35
2022-08-11T06:57:29.441Z,49.82
2022-08-11T06:58:40.766Z,50.64
2022-08-11T07:00:03.049Z,51.28
2022-08-11T07:01:13.285Z,50.85
2022-08-11T07:02:22.595Z,50.39
2022-08-11T07:03:28.753Z,49.20
2022-08-11T07:04:44.680Z,49.17
2022-08-11T07:05:46.288Z,48.93
2022-08-11T07:07:20.495Z,48.35
2022-08-11T07:08:43.876Z,47.53
2022-08-11T07:10:42.733Z,48.10
2022-08-11T07:12:35.195Z,47.46
2022-08-11T07:13:57.716Z,47.27
2022-08-11T07:16:11.521Z,48.16
2022-08-11T07:16:59.643Z,49.25
2022-08-11T07:18:25.562Z,48.98
2022-08-11T07:19:52.565Z,48.05
2022-08-11T07:21:42.678Z,48.33
2022-08-11T07:23:19.891Z,47.34
2022-08-11T07:25:01.555Z,47.71
2022-08-11T07:26:23.843Z,47.21
2022-08-11T07:27:50.233Z,48.01
2022-08-11T07:28:58.039Z,47.46
2022-08-11T07:30:02.346Z,48.08
2022-08-11T07:31:08.651Z,47.71
2022-08-11T07:32:16.457Z,47.29
2022-08-11T07:34:08.017Z,46.78
2022-08-11T07:35:08.065Z,50.08
2022-08-11T07:36:12.767Z,51.03
2022-08-11T07:37:17.987Z,50.32
2022-08-11T07:38:25.204Z,49.17
2022-08-11T07:39:34.035Z,48.51
2022-08-11T07:40:36.958Z,48.48
2022-08-11T07:41:39.253Z,48.89
2022-08-11T07:42:46.568Z,48.26
2022-08-11T07:43:55.158Z,48.43
2022-08-11T07:45:18.380Z,47.79
2022-08-11T07:46:39.849Z,47.65
2022-08-11T07:48:00.927Z,47.65
2022-08-11T07:49:23.088Z,47.80
2022-08-11T07:50:44.226Z,49.02
2022-08-11T07:52:04.649Z,48.73
2022-08-11T07:53:06.823Z,49.62
2022-08-11T07:54:16.875Z,49.81
2022-08-11T07:55:49.046Z,49.01
2022-08-11T07:56:54.861Z,48.47
2022-08-11T07:58:20.151Z,48.66
2022-08-11T08:00:03.718Z,47.96
2022-08-11T08:01:22.908Z,47.25
2022-08-11T08:02:43.009Z,47.28
2022-08-11T08:04:04.570Z,46.42
2022-08-11T08:05:25.484Z,45.83
2022-08-11T08:06:48.086Z,45.67
2022-08-11T08:08:08.382Z,45.85
2022-08-11T08:09:29.263Z,45.65
2022-08-11T08:10:49.908Z,45.57
2022-08-11T08:12:10.983Z,45.49
2022-08-11T08:13:32.097Z,45.06
2022-08-11T08:14:53.426Z,45.22
2022-08-11T08:16:14.959Z,45.23
2022-08-11T08:17:35.807Z,44.66
2022-08-11T08:18:39.102Z,45.28
2022-08-11T08:19:44.580Z,45.20
2022-08-11T08:20:51.713Z,44.75
2022-08-11T08:21:53.511Z,44.67
2022-08-11T08:22:58.069Z,43.67
2022-08-11T08:24:00.365Z,44.32
2022-08-11T08:25:02.528Z,44.51
2022-08-11T08:26:26.908Z,45.30
2022-08-11T08:27:28.933Z,45.05
2022-08-11T08:28:34.481Z,46.19
2022-08-11T08:29:56.588Z,47.76
2022-08-11T08:30:58.623Z,49.00
2022-08-11T08:32:02.836Z,49.54
2022-08-11T08:33:05.563Z,49.71
2022-08-11T08:34:07.359Z,49.21
2022-08-11T08:35:11.821Z,48.57
2022-08-11T08:36:17.031Z,49.61
2022-08-11T08:37:44.998Z,48.97
2022-08-11T08:38:54.108Z,48.82
2022-08-11T08:39:58.634Z,49.09
2022-08-11T08:41:01.054Z,49.26
2022-08-11T08:42:07.376Z,49.33
2022-08-11T08:43:14.744Z,48.69
2022-08-11T08:44:37.967Z,47.34
2022-08-11T08:45:42.998Z,46.14
2022-08-11T08:46:49.414Z,45.90
2022-08-11T08:48:04.899Z,46.23
2022-08-11T08:49:09.987Z,46.00
2022-08-11T08:50:16.675Z,45.19
2022-08-11T08:52:01.516Z,45.43
2022-08-11T08:53:05.292Z,44.75
2022-08-11T08:54:16.766Z,44.47
2022-08-11T08:55:19.966Z,44.48
2022-08-11T08:56:28.354Z,45.16
2022-08-11T08:57:38.826Z,44.67
2022-08-11T08:58:43.135Z,45.29
2022-08-11T08:59:49.419Z,44.51
2022-08-11T09:00:54.760Z,43.93
2022-08-11T09:02:02.528Z,43.71
2022-08-11T09:03:22.973Z,45.50
2022-08-11T09:04:27.577Z,46.04
2022-08-11T09:05:29.530Z,45.76
2022-08-11T09:06:33.005Z,45.51
2022-08-11T09:07:39.106Z,44.32
2022-08-11T09:08:42.069Z,43.01
2022-08-11T09:09:46.454Z,43.02
2022-08-11T09:11:13.606Z,43.01
2022-08-11T09:12:35.778Z,43.06
2022-08-11T09:13:44.284Z,43.37
2022-08-11T09:15:00.863Z,44.62
2022-08-11T09:16:06.041Z,43.50
2022-08-11T09:17:07.960Z,43.84
2022-08-11T09:18:11.228Z,43.50
2022-08-11T09:19:18.443Z,42.82
2022-08-11T09:20:20.199Z,42.59
2022-08-11T09:21:46.462Z,42.39
2022-08-11T09:24:45.017Z,43.60
2022-08-11T09:26:06.052Z,43.43
2022-08-11T09:27:08.691Z,41.38
2022-08-11T09:28:12.925Z,40.83
2022-08-11T09:29:14.990Z,40.08
2022-08-11T09:30:16.789Z,39.97
2022-08-11T09:31:21.941Z,40.09
2022-08-11T09:32:24.260Z,39.35
2022-08-11T09:33:26.329Z,39.98
2022-08-11T09:34:28.730Z,39.21
2022-08-11T09:35:34.771Z,40.32
2022-08-11T09:36:56.564Z,39.86
2022-08-11T09:38:17.821Z,39.94
2022-08-11T09:39:38.747Z,40.57
2022-08-11T09:40:45.227Z,40.54
2022-08-11T09:42:01.648Z,40.95
2022-08-11T09:43:28.530Z,40.97
2022-08-11T09:44:53.073Z,41.29
2022-08-11T09:45:57.719Z,40.44
2022-08-11T09:47:00.291Z,40.37
2022-08-11T09:48:05.295Z,40.55
2022-08-11T09:49:07.133Z,40.80
2022-08-11T09:50:10.694Z,41.05
2022-08-11T09:51:13.500Z,41.19
2022-08-11T09:52:16.111Z,41.10
2022-08-11T09:53:36.217Z,41.17
2022-08-11T09:54:43.530Z,40.86
2022-08-11T09:55:51.429Z,40.65
2022-08-11T09:57:12.522Z,40.82
2022-08-11T09:58:42.697Z,41.16
2022-08-11T09:59:38.602Z,39.98
2022-08-11T10:00:41.112Z,39.97
2022-08-11T10:01:49.418Z,39.82
2022-08-11T10:02:54.557Z,40.26
2022-08-11T10:04:04.037Z,39.57
2022-08-11T10:05:26.184Z,39.86
2022-08-11T10:06:48.625Z,39.55
2022-08-11T10:07:57.256Z,40.02
2022-08-11T10:08:59.020Z,39.29
2022-08-11T10:10:02.701Z,39.54
2022-08-11T10:11:06.595Z,39.53
2022-08-11T10:12:12.091Z,39.34
2022-08-11T10:14:30.277Z,39.22
2022-08-11T10:15:04.105Z,39.29
2022-08-11T10:16:15.842Z,39.53
2022-08-11T10:17:21.798Z,40.00
2022-08-11T10:18:49.406Z,39.50
2022-08-11T10:20:05.028Z,39.48
2022-08-11T10:21:12.107Z,39.37
2022-08-11T10:22:36.941Z,39.49
2022-08-11T10:24:01.111Z,39.50
2022-08-11T10:25:26.741Z,39.51
2022-08-11T10:26:49.008Z,38.99
2022-08-11T10:28:28.747Z,38.73
2022-08-11T10:29:59.915Z,38.92
2022-08-11T10:31:22.819Z,38.35
2022-08-11T10:32:57.276Z,38.72
2022-08-11T10:34:03.708Z,38.12
2022-08-11T10:35:09.113Z,37.55
2022-08-11T10:36:16.605Z,38.21
2022-08-11T10:37:22.468Z,38.06
2022-08-11T10:38:25.651Z,37.71
2022-08-11T10:39:27.370Z,37.97
2022-08-11T10:40:29.243Z,38.40
2022-08-11T10:42:06.758Z,37.99
2022-08-11T10:43:14.017Z,38.89
2022-08-11T10:44:17.059Z,38.30
2022-08-11T10:45:38.188Z,38.26
2022-08-11T10:46:58.774Z,38.17
2022-08-11T10:48:01.797Z,37.80
2022-08-11T10:49:03.697Z,37.12
2022-08-11T10:50:28.981Z,37.62
2022-08-11T10:51:53.749Z,37.73
2022-08-11T10:53:16.139Z,37.34
2022-08-11T10:54:36.745Z,37.71
2022-08-11T10:55:58.471Z,36.79
2022-08-11T10:57:19.671Z,37.54
2022-08-11T10:58:40.984Z,37.91
2022-08-11T10:59:43.461Z,37.65
2022-08-11T11:00:45.538Z,37.50
2022-08-11T11:01:48.337Z,37.53
2022-08-11T11:03:22.005Z,37.67
2022-08-11T11:04:17.483Z,38.30
2022-08-11T11:05:28.896Z,37.78
2022-08-11T11:06:51.816Z,38.12
2022-08-11T11:08:28.154Z,37.73
2022-08-11T11:09:39.067Z,37.83
2022-08-11T11:10:41.745Z,37.62
2022-08-11T11:12:08.467Z,38.24
2022-08-11T11:13:29.089Z,37.92
2022-08-11T11:14:56.522Z,37.74
2022-08-11T11:16:19.212Z,37.54
2022-08-11T11:17:47.932Z,38.15
2022-08-11T11:19:00.763Z,37.69
2022-08-11T11:20:06.099Z,38.01
2022-08-11T11:21:15.899Z,37.94
2022-08-11T11:22:36.702Z,37.51
2022-08-11T11:23:40.551Z,37.89
2022-08-11T11:25:04.077Z,38.17
2022-08-11T11:26:33.683Z,38.02
2022-08-11T11:28:11.821Z,38.21
2022-08-11T11:29:53.096Z,39.14
2022-08-11T11:31:22.483Z,38.54
2022-08-11T11:32:49.772Z,38.41
2022-08-11T11:34:24.171Z,38.25
2022-08-11T11:35:48.617Z,38.31
2022-08-11T11:36:58.250Z,37.99
2022-08-11T11:38:04.104Z,38.55
2022-08-11T11:39:08.834Z,38.57
2022-08-11T11:40:14.536Z,38.16
2022-08-11T11:41:25.217Z,38.00
2022-08-11T11:42:27.990Z,37.46
2022-08-11T11:43:30.052Z,37.56
2022-08-11T11:44:33.002Z,37.31
2022-08-11T11:45:35.190Z,37.53
2022-08-11T11:46:39.036Z,37.75
2022-08-11T11:47:41.879Z,37.50
2022-08-11T11:48:44.072Z,38.03
2022-08-11T11:49:48.622Z,37.93
2022-08-11T11:50:50.465Z,37.91
2022-08-11T11:51:53.313Z,37.40
2022-08-11T11:52:55.880Z,37.47
2022-08-11T11:53:57.699Z,37.60
2022-08-11T11:55:00.779Z,37.14
2022-08-11T11:56:03.382Z,36.97
2022-08-11T11:57:23.996Z,36.80
2022-08-11T11:58:46.108Z,37.08
2022-08-11T12:00:08.833Z,36.96
2022-08-11T12:01:16.905Z,37.22
2022-08-11T12:02:18.584Z,37.33
2022-08-11T12:03:22.036Z,36.93
2022-08-11T12:04:24.839Z,36.87
2022-08-11T12:05:28.213Z,37.35
2022-08-11T12:06:30.059Z,37.11
2022-08-11T12:08:06.518Z,37.24
2022-08-11T12:09:15.816Z,37.49
2022-08-11T12:10:19.045Z,37.17
2022-08-11T12:11:43.556Z,36.64
2022-08-11T12:13:05.598Z,36.99
2022-08-11T12:14:10.756Z,36.93
2022-08-11T12:15:13.487Z,36.85
2022-08-11T12:16:34.806Z,37.24
2022-08-11T12:17:38.946Z,36.70
2022-08-11T12:18:42.824Z,37.48
2022-08-11T12:19:48.476Z,36.17
2022-08-11T12:20:50.654Z,36.18
2022-08-11T12:22:14.806Z,36.59
2022-08-11T12:23:35.627Z,36.71
2022-08-11T12:24:59.359Z,35.38
2022-08-11T12:26:27.648Z,34.55
2022-08-11T12:27:30.980Z,35.32
2022-08-11T12:28:34.084Z,36.13
2022-08-11T12:29:36.153Z,35.36
2022-08-11T12:31:49.805Z,35.58
2022-08-11T12:32:52.332Z,35.53
2022-08-11T12:33:56.180Z,35.82
2022-08-11T12:34:58.540Z,35.30
2022-08-11T12:36:01.491Z,35.73
2022-08-11T12:37:06.937Z,34.91
2022-08-11T12:38:10.875Z,34.96
2022-08-11T12:39:24.441Z,34.39
2022-08-11T12:41:17.394Z,34.10
2022-08-11T12:42:38.868Z,33.74
2022-08-11T12:44:04.254Z,34.62
2022-08-11T12:45:29.711Z,33.80
2022-08-11T12:46:37.880Z,33.27
2022-08-11T12:48:38.173Z,33.35
2022-08-11T12:49:49.700Z,33.66
2022-08-11T12:52:00.575Z,34.06
2022-08-11T12:52:58.655Z,33.22
2022-08-11T12:54:07.643Z,33.62
2022-08-11T12:55:34.943Z,32.53
2022-08-11T12:57:27.582Z,32.53
2022-08-11T12:58:41.892Z,32.43
2022-08-11T13:00:02.412Z,32.59
2022-08-11T13:01:22.808Z,32.66
2022-08-11T13:02:44.567Z,32.63
2022-08-11T13:04:04.789Z,33.21
2022-08-11T13:05:08.982Z,33.59
2022-08-11T13:06:11.586Z,35.10
2022-08-11T13:07:14.462Z,35.25
2022-08-11T13:08:17.383Z,34.63
2022-08-11T13:09:20.875Z,34.86
2022-08-11T13:10:41.377Z,34.56
2022-08-11T13:12:04.007Z,34.63
2022-08-11T13:13:55.084Z,35.35
2022-08-11T13:14:33.090Z,34.68
2022-08-11T13:15:38.503Z,35.02
2022-08-11T13:16:59.679Z,35.27
2022-08-11T13:18:02.192Z,34.85
2022-08-11T13:19:03.945Z,35.20
2022-08-11T13:20:07.143Z,34.83
2022-08-11T13:21:12.013Z,35.23
2022-08-11T13:22:24.482Z,34.77
2022-08-11T13:23:27.557Z,34.59
2022-08-11T13:24:30.316Z,34.83
2022-08-11T13:25:33.586Z,34.18
2022-08-11T13:26:48.378Z,34.30
2022-08-11T13:27:56.185Z,32.93
2022-08-11T13:29:02.428Z,33.24
2022-08-11T13:30:23.533Z,33.64
2022-08-11T13:31:25.320Z,33.97
2022-08-11T13:32:29.863Z,33.41
2022-08-11T13:33:33.207Z,33.72
2022-08-11T13:34:41.643Z,33.81
2022-08-11T13:35:46.425Z,33.56
2022-08-11T13:36:52.232Z,34.05
2022-08-11T13:38:17.289Z,34.00
2022-08-11T13:39:18.597Z,33.96
2022-08-11T13:40:33.175Z,34.41
2022-08-11T13:41:47.837Z,33.38
2022-08-11T13:42:51.045Z,32.69
2022-08-11T13:43:54.498Z,33.25
2022-08-11T13:44:57.875Z,32.44
2022-08-11T13:46:18.248Z,32.68
2022-08-11T13:47:23.681Z,32.40
2022-08-11T13:48:25.357Z,31.82
2022-08-11T13:49:27.925Z,31.48
2022-08-11T13:50:48.104Z,31.85
2022-08-11T13:51:50.514Z,31.90
2022-08-11T13:52:53.304Z,32.20
2022-08-11T13:53:57.885Z,32.33
2022-08-11T13:55:05.025Z,32.95
2022-08-11T13:56:07.079Z,33.22
2022-08-11T13:58:05.937Z,32.52
2022-08-11T13:58:39.596Z,32.11
2022-08-11T13:59:52.068Z,32.17
2022-08-11T14:00:55.173Z,31.83
2022-08-11T14:02:21.812Z,32.22
2022-08-11T14:04:28.490Z,32.12
2022-08-11T14:04:50.147Z,32.23
2022-08-11T14:05:56.642Z,32.45
2022-08-11T14:07:01.619Z,32.24
2022-08-11T14:08:09.613Z,33.41
2022-08-11T14:09:40.148Z,32.64
2022-08-11T14:10:42.652Z,33.26
2022-08-11T14:12:23.114Z,32.89
2022-08-11T14:13:41.334Z,33.06
2022-08-11T14:14:49.504Z,32.21
2022-08-11T14:15:53.101Z,32.73
2022-08-11T14:16:57.337Z,32.92
2022-08-11T14:18:05.459Z,32.79
2022-08-11T14:19:11.866Z,32.89
2022-08-11T14:20:38.501Z,33.78
2022-08-11T14:22:07.708Z,32.24
2022-08-11T14:23:15.041Z,32.64
2022-08-11T14:24:18.059Z,32.29
2022-08-11T14:25:19.729Z,32.24
2022-08-11T14:26:29.077Z,32.38
2022-08-11T14:27:39.130Z,32.87
2022-08-11T14:29:00.624Z,32.21
2022-08-11T14:30:02.748Z,32.06
2022-08-11T14:31:07.274Z,31.94
2022-08-11T14:32:12.243Z,32.96
2022-08-11T14:33:17.107Z,33.49
2022-08-11T14:34:29.910Z,33.55
2022-08-11T14:35:31.620Z,33.76
2022-08-11T14:36:45.552Z,34.13
2022-08-11T14:37:47.956Z,34.01
2022-08-11T14:38:50.492Z,33.75
2022-08-11T14:40:03.221Z,33.87
2022-08-11T14:41:26.114Z,34.14
2022-08-11T14:42:46.294Z,34.32
2022-08-11T14:44:14.028Z,34.22
2022-08-11T14:45:57.962Z,34.90
2022-08-11T14:47:23.314Z,35.06
2022-08-11T14:48:27.001Z,34.38
2022-08-11T14:49:29.777Z,35.14
2022-08-11T14:50:34.761Z,34.62
2022-08-11T14:51:36.892Z,34.26
2022-08-11T14:52:57.296Z,34.75
2022-08-11T14:54:20.483Z,34.91
2022-08-11T14:55:42.936Z,34.47
2022-08-11T14:56:44.806Z,34.84
2022-08-11T14:57:54.421Z,35.55
2022-08-11T14:58:57.619Z,35.02
2022-08-11T15:00:02.781Z,34.82
2022-08-11T15:01:25.008Z,35.19
2022-08-11T15:02:46.500Z,35.07
2022-08-11T15:04:27.311Z,34.83
2022-08-11T15:05:13.122Z,35.05
2022-08-11T15:06:14.752Z,35.18
2022-08-11T15:07:17.376Z,34.81
2022-08-11T15:08:20.525Z,35.03
2022-08-11T15:09:22.376Z,35.23
2022-08-11T15:10:25.347Z,35.76
2022-08-11T15:11:50.058Z,35.82
2022-08-11T15:12:52.281Z,36.40
2022-08-11T15:13:56.016Z,36.26
2022-08-11T15:15:16.739Z,36.59
2022-08-11T15:16:37.015Z,36.51
2022-08-11T15:17:43.548Z,36.51
2022-08-11T15:18:45.907Z,36.85
2022-08-11T15:20:08.096Z,36.72
2022-08-11T15:21:28.435Z,37.28
2022-08-11T15:22:48.659Z,37.27
2022-08-11T15:24:09.079Z,38.04
2022-08-11T15:25:11.173Z,38.19
2022-08-11T15:27:11.821Z,38.35
2022-08-11T15:28:34.078Z,38.01
2022-08-11T15:29:57.792Z,38.05
2022-08-11T15:31:18.869Z,37.49
2022-08-11T15:32:22.828Z,36.89
2022-08-11T15:33:47.417Z,37.33
2022-08-11T15:35:26.032Z,37.46
2022-08-11T15:37:02.367Z,38.09
2022-08-11T15:38:05.058Z,36.95
2022-08-11T15:39:21.019Z,37.15
2022-08-11T15:40:48.155Z,38.18
2022-08-11T15:42:27.533Z,38.56
2022-08-11T15:43:59.652Z,37.97
2022-08-11T15:45:24.372Z,38.07
2022-08-11T15:46:39.675Z,37.54
2022-08-11T15:47:46.191Z,37.84
2022-08-11T15:48:56.183Z,37.85
2022-08-11T15:50:10.430Z,37.22
2022-08-11T15:51:26.928Z,37.67
2022-08-11T15:52:43.517Z,37.93
2022-08-11T15:53:56.661Z,37.78
2022-08-11T15:55:02.268Z,38.15
2022-08-11T15:56:06.546Z,38.12
2022-08-11T15:57:10.080Z,38.75
2022-08-11T15:58:31.939Z,38.93
2022-08-11T15:59:55.620Z,39.47
2022-08-11T16:01:19.299Z,39.55
2022-08-11T16:02:25.327Z,39.41
2022-08-11T16:04:05.811Z,39.39
2022-08-11T16:05:13.541Z,39.14
2022-08-11T16:06:16.038Z,39.21
2022-08-11T16:07:26.700Z,38.85
2022-08-11T16:08:32.943Z,39.15
2022-08-11T16:09:51.979Z,39.00
2022-08-11T16:10:57.365Z,38.94
2022-08-11T16:12:03.800Z,38.84
2022-08-11T16:13:06.592Z,39.06
2022-08-11T16:14:28.723Z,39.27
2022-08-11T16:15:51.596Z,39.54
2022-08-11T16:16:54.343Z,39.88
2022-08-11T16:18:06.764Z,40.29
2022-08-11T16:19:10.879Z,40.76
2022-08-11T16:20:15.572Z,40.85
2022-08-11T16:21:35.228Z,40.64
2022-08-11T16:23:02.208Z,40.74
2022-08-11T16:24:08.225Z,40.39
2022-08-11T16:27:06.206Z,40.85
2022-08-11T16:27:10.017Z,41.21
2022-08-11T16:28:05.722Z,41.09
2022-08-11T16:29:08.862Z,41.49
2022-08-11T16:30:11.327Z,41.71
2022-08-11T16:31:15.265Z,41.51
2022-08-11T16:32:23.309Z,41.20
2022-08-11T16:33:50.021Z,41.50
2022-08-11T16:35:21.326Z,42.32
2022-08-11T16:36:43.917Z,42.58
2022-08-11T16:38:05.588Z,42.70
2022-08-11T16:39:12.288Z,42.39
2022-08-11T16:40:15.196Z,42.73
2022-08-11T16:41:42.008Z,42.15
2022-08-11T16:43:10.980Z,42.25
2022-08-11T16:44:37.573Z,41.23
2022-08-11T16:46:00.164Z,41.44
2022-08-11T16:47:04.557Z,41.46
2022-08-11T16:48:35.621Z,41.50
2022-08-11T16:49:34.921Z,41.23
2022-08-11T16:50:39.754Z,41.20
2022-08-11T16:51:41.461Z,41.17
2022-08-11T16:52:43.484Z,40.97
2022-08-11T16:54:04.814Z,41.08
2022-08-11T16:55:09.687Z,40.77